createdAt,value
2019-05-07T00:01:57.983Z,99.900002
2019-05-07T00:07:02.372Z,99.900002
2019-05-07T00:12:05.088Z,99.900002
2019-05-07T00:17:04.947Z,99.900002
2019-05-07T00:22:07.255Z,99.900002
2019-05-07T00:27:09.560Z,99.900002
2019-05-07T00:32:12.249Z,99.900002
2019-05-07T00:37:14.093Z,99.900002
2019-05-07T00:42:16.332Z,99.900002
2019-05-07T00:47:18.611Z,99.900002
2019-05-07T00:52:22.589Z,99.900002
2019-05-07T00:57:23.248Z,99.900002
2019-05-07T01:02:25.540Z,99.900002
2019-05-07T01:07:28.502Z,99.900002
2019-05-07T01:12:30.152Z,99.900002
2019-05-07T01:17:33.558Z,99.900002
2019-05-07T01:22:34.764Z,99.900002
2019-05-07T01:27:37.076Z,99.900002
2019-05-07T01:32:39.362Z,99.900002
2019-05-07T01:37:42.207Z,99.900002
2019-05-07T01:42:43.963Z,99.900002
2019-05-07T01:47:46.180Z,99.900002
2019-05-07T01:52:48.549Z,99.900002
2019-05-07T01:57:52.268Z,99.900002
2019-05-07T02:02:53.138Z,99.900002
2019-05-07T02:07:55.456Z,99.900002
2019-05-07T02:12:57.807Z,99.900002
2019-05-07T02:18:01.905Z,99.900002
2019-05-07T02:23:02.895Z,99.900002
2019-05-07T02:28:04.637Z,99.900002
2019-05-07T02:33:06.793Z,99.900002
2019-05-07T02:38:09.290Z,99.900002
2019-05-07T02:43:14.074Z,99.900002
2019-05-07T02:48:13.685Z,99.900002
2019-05-07T02:53:18.133Z,99.900002
2019-05-07T02:58:18.427Z,99.900002
2019-05-07T03:03:24.296Z,99.900002
2019-05-07T03:08:27.018Z,99.900002
2019-05-07T03:13:25.346Z,99.900002
2019-05-07T03:18:27.453Z,99.900002
2019-05-07T03:23:29.788Z,99.900002
2019-05-07T03:28:33.569Z,99.900002
2019-05-07T03:33:36.678Z,99.900002
2019-05-07T03:38:36.726Z,99.900002
2019-05-07T03:43:38.905Z,99.900002
2019-05-07T03:48:44.107Z,99.900002
2019-05-07T03:53:43.969Z,99.900002
2019-05-07T03:58:45.939Z,99.900002
2019-05-07T04:03:48.403Z,99.900002
2019-05-07T04:08:53.103Z,99.900002
2019-05-07T04:13:53.504Z,99.900002
2019-05-07T04:18:55.009Z,99.900002
2019-05-07T04:23:57.296Z,99.900002
2019-05-07T04:28:59.550Z,99.900002
2019-05-07T04:34:03.662Z,99.900002
2019-05-07T04:39:04.145Z,99.900002
2019-05-07T04:44:06.472Z,99.900002
2019-05-07T04:49:08.859Z,99.900002
2019-05-07T04:54:13.178Z,99.900002
2019-05-07T04:59:13.407Z,99.900002
2019-05-07T05:04:25.302Z,99.900002
2019-05-07T05:09:17.989Z,99.900002
2019-05-07T05:14:22.703Z,99.900002
2019-05-07T05:19:23.059Z,99.900002
2019-05-07T05:24:24.983Z,99.900002
2019-05-07T05:29:27.134Z,99.900002
2019-05-07T05:34:29.457Z,99.900002
2019-05-07T05:39:32.113Z,99.900002
2019-05-07T05:44:33.991Z,99.900002
2019-05-07T05:49:36.295Z,99.900002
2019-05-07T05:54:38.592Z,99.900002
2019-05-07T05:59:49.325Z,99.900002
2019-05-07T06:04:43.132Z,99.900002
2019-05-07T06:09:45.565Z,99.900002
2019-05-07T06:14:47.729Z,99.900002
2019-05-07T06:19:51.859Z,99.900002
2019-05-07T06:24:52.296Z,99.900002
2019-05-07T06:29:54.564Z,99.900002
2019-05-07T06:34:56.942Z,96.900002
2019-05-07T06:39:59.266Z,99
2019-05-07T06:45:02.925Z,96.699997
2019-05-07T06:50:03.773Z,96.400002
2019-05-07T06:55:06.172Z,97
2019-05-07T07:00:08.471Z,96.199997
2019-05-07T07:05:12.133Z,96.400002
2019-05-07T07:10:13.000Z,92.5
2019-05-07T07:15:15.291Z,85.400002
2019-05-07T07:20:17.503Z,87.199997
2019-05-07T07:25:19.813Z,83.599998
2019-05-07T07:30:22.399Z,89.099998
2019-05-07T07:35:24.502Z,79.099998
2019-05-07T07:40:26.711Z,75.599998
2019-05-07T07:45:29.033Z,69.099998
2019-05-07T07:50:33.018Z,73
2019-05-07T07:55:33.729Z,67.699997
2019-05-07T08:00:36.015Z,69
2019-05-07T08:05:38.183Z,65.199997
2019-05-07T08:10:42.390Z,62.200001
2019-05-07T08:15:43.068Z,60
2019-05-07T08:20:45.075Z,56.200001
2019-05-07T08:25:47.456Z,57.200001
2019-05-07T08:30:49.620Z,56
2019-05-07T08:35:52.219Z,52.700001
2019-05-07T08:40:54.350Z,58
2019-05-07T08:45:56.668Z,45.900002
2019-05-07T08:50:58.785Z,44.099998
2019-05-07T08:56:03.210Z,47.200001
2019-05-07T09:01:03.419Z,40.799999
2019-05-07T09:06:05.708Z,40.099998
2019-05-07T09:11:07.954Z,38.599998
2019-05-07T09:16:12.713Z,36.099998
2019-05-07T09:21:12.791Z,38.200001
2019-05-07T09:26:14.923Z,42.099998
2019-05-07T09:31:17.176Z,37.299999
2019-05-07T09:36:19.455Z,41.900002
2019-05-07T09:41:22.321Z,35.700001
2019-05-07T09:46:24.077Z,33.5
2019-05-07T09:51:26.477Z,33.099998
2019-05-07T09:56:28.801Z,34
2019-05-07T10:01:31.894Z,35.200001
2019-05-07T10:06:33.249Z,38.5
2019-05-07T10:11:35.607Z,37.900002
2019-05-07T10:16:37.887Z,44.299999
2019-05-07T10:21:42.429Z,44
2019-05-07T10:26:42.933Z,34.400002
2019-05-07T10:31:44.808Z,32.200001
2019-05-07T10:36:47.054Z,35.5
2019-05-07T10:41:49.282Z,32.400002
2019-05-07T10:46:52.536Z,33.299999
2019-05-07T10:51:53.986Z,33.200001
2019-05-07T10:56:56.226Z,35.099998
2019-05-07T11:01:58.483Z,38.200001
2019-05-07T11:07:00.825Z,35.900002
2019-05-07T11:12:03.333Z,36.599998
2019-05-07T11:17:05.407Z,34.5
2019-05-07T11:22:07.819Z,34.799999
2019-05-07T11:27:11.922Z,39.400002
2019-05-07T11:32:12.433Z,39.900002
2019-05-07T11:37:14.575Z,37.700001
2019-05-07T11:42:16.880Z,39.299999
2019-05-07T11:47:19.189Z,40
2019-05-07T11:52:22.815Z,37.200001
2019-05-07T11:57:23.795Z,40.099998
2019-05-07T12:02:26.214Z,37.5
2019-05-07T12:12:32.595Z,40.5
2019-05-07T12:17:32.996Z,37.900002
2019-05-07T12:22:35.264Z,35.400002
2019-05-07T12:27:37.529Z,32.700001
2019-05-07T12:32:39.971Z,25
2019-05-07T12:37:42.807Z,35.599998
2019-05-07T12:42:46.821Z,31.4
2019-05-07T12:47:46.644Z,25.700001
2019-05-07T12:52:49.156Z,31
2019-05-07T12:57:51.972Z,19.9
2019-05-07T13:02:53.595Z,35.599998
2019-05-07T13:07:55.875Z,28
2019-05-07T13:12:58.176Z,22.1
2019-05-07T13:18:02.593Z,18.6
2019-05-07T13:23:02.922Z,19.5
2019-05-07T13:28:05.048Z,19.5
2019-05-07T13:33:07.356Z,20.700001
2019-05-07T13:38:11.854Z,22.200001
2019-05-07T13:43:12.104Z,26
2019-05-07T13:48:15.024Z,25.1
2019-05-07T13:53:16.578Z,25.9
2019-05-07T13:58:18.767Z,28
2019-05-07T14:03:22.693Z,28.6
2019-05-07T14:08:23.567Z,27
2019-05-07T14:13:25.857Z,25.1
2019-05-07T14:18:28.060Z,30.4
2019-05-07T14:23:32.385Z,27.299999
2019-05-07T14:28:32.697Z,26.200001
2019-05-07T14:33:34.981Z,34.599998
2019-05-07T14:38:37.328Z,34.299999
2019-05-07T14:43:39.448Z,38.900002
2019-05-07T14:48:43.790Z,26.799999
2019-05-07T14:53:44.085Z,25.4
2019-05-07T14:58:51.712Z,24
2019-05-07T15:03:48.810Z,30.4
2019-05-07T15:08:52.241Z,27.700001
2019-05-07T15:13:53.214Z,26.700001
2019-05-07T15:18:55.653Z,26.9
2019-05-07T15:23:57.847Z,26.299999
2019-05-07T15:29:00.314Z,21.200001
2019-05-07T15:34:02.895Z,22.1
2019-05-07T15:39:04.689Z,19
2019-05-07T15:44:07.150Z,21.1
2019-05-07T15:49:09.230Z,23.4
2019-05-07T15:54:12.797Z,22.799999
2019-05-07T15:59:13.905Z,25.1
2019-05-07T16:04:22.212Z,22.9
2019-05-07T16:09:18.395Z,27.700001
2019-05-07T16:14:22.859Z,25.1
2019-05-07T16:19:23.188Z,25.700001
2019-05-07T16:24:25.454Z,24.799999
2019-05-07T16:29:27.614Z,28
2019-05-07T16:34:32.389Z,29.6
2019-05-07T16:39:32.699Z,27.799999
2019-05-07T16:44:34.626Z,30.299999
2019-05-07T16:49:38.112Z,27.700001
2019-05-07T16:54:39.109Z,30.4
2019-05-07T16:59:42.715Z,32.299999
2019-05-07T17:04:44.546Z,33.099998
2019-05-07T17:09:46.180Z,30.4
2019-05-07T17:14:48.610Z,30.200001
2019-05-07T17:19:53.480Z,31.6
2019-05-07T17:24:53.015Z,30.5
2019-05-07T17:29:55.387Z,32.5
2019-05-07T17:34:57.379Z,40.900002
2019-05-07T17:39:59.761Z,36.099998
2019-05-07T17:45:03.041Z,37.200001
2019-05-07T17:50:04.576Z,32.900002
2019-05-07T17:55:06.656Z,35.599998
2019-05-07T18:00:08.902Z,38
2019-05-07T18:05:11.927Z,40.799999
2019-05-07T18:10:14.581Z,38.900002
2019-05-07T18:15:15.745Z,43
2019-05-07T18:20:18.089Z,38.200001
2019-05-07T18:25:21.729Z,37.299999
2019-05-07T18:30:22.655Z,37.299999
2019-05-07T18:35:24.962Z,39.400002
2019-05-07T18:40:27.366Z,40.900002
2019-05-07T18:45:29.695Z,40.400002
2019-05-07T18:50:32.559Z,41.099998
2019-05-07T18:55:34.214Z,44.700001
2019-05-07T19:00:36.435Z,46.799999
2019-05-07T19:05:38.856Z,47.099998
2019-05-07T19:10:42.866Z,47.900002
2019-05-07T19:15:43.395Z,49.599998
2019-05-07T19:20:45.653Z,53.5
2019-05-07T19:25:47.867Z,55.299999
2019-05-07T19:30:52.551Z,57.900002
2019-05-07T19:35:52.929Z,57.200001
2019-05-07T19:40:54.738Z,58.299999
2019-05-07T19:45:57.072Z,58.900002
2019-05-07T19:50:59.596Z,60.5
2019-05-07T19:56:02.097Z,59.799999
2019-05-07T20:01:04.213Z,60.5
2019-05-07T20:06:06.358Z,61.700001
2019-05-07T20:11:08.626Z,63.700001
2019-05-07T20:16:12.214Z,61.700001
2019-05-07T20:21:13.204Z,62.099998
2019-05-07T20:26:15.629Z,61.799999
2019-05-07T20:31:17.641Z,62.299999
2019-05-07T20:36:20.034Z,61.700001
2019-05-07T20:41:23.302Z,60
2019-05-07T20:46:24.604Z,58.799999
2019-05-07T20:51:26.866Z,59.099998
2019-05-07T20:56:29.233Z,62.099998
2019-05-07T21:01:32.944Z,62.700001
2019-05-07T21:06:33.857Z,60.599998
2019-05-07T21:11:36.202Z,61.700001
2019-05-07T21:16:38.505Z,59.299999
2019-05-07T21:21:42.195Z,61.599998
2019-05-07T21:26:42.965Z,61.299999
2019-05-07T21:31:45.218Z,60.799999
2019-05-07T21:36:47.644Z,61.700001
2019-05-07T21:41:51.874Z,60.299999
2019-05-07T21:46:52.090Z,61.200001
2019-05-07T21:51:54.589Z,60.599998
2019-05-07T21:56:56.822Z,60.299999
2019-05-07T22:01:58.999Z,60.200001
2019-05-07T22:07:02.968Z,60.299999
2019-05-07T22:12:03.894Z,60
2019-05-07T22:17:06.151Z,60.400002
2019-05-07T22:22:08.132Z,59.900002
2019-05-07T22:27:12.782Z,59.200001
2019-05-07T22:32:12.836Z,59.799999
2019-05-07T22:37:15.141Z,59.700001
2019-05-07T22:42:17.426Z,59.599998
2019-05-07T22:47:22.161Z,59
2019-05-07T22:52:23.483Z,59.5
2019-05-07T22:57:24.384Z,59.200001
2019-05-07T23:02:26.805Z,58
2019-05-07T23:07:28.984Z,59
2019-05-07T23:12:32.714Z,59.099998
2019-05-07T23:17:33.576Z,59.5
2019-05-07T23:22:35.890Z,59.5
2019-05-07T23:27:38.037Z,59.099998
2019-05-07T23:32:40.426Z,60.099998
2019-05-07T23:37:44.252Z,59.599998
2019-05-07T23:42:44.889Z,61.200001
2019-05-07T23:47:47.250Z,60.400002
2019-05-07T23:52:52.708Z,59.5
2019-05-07T23:57:52.517Z,60.700001
